Time;durP1;ratioP1;P1;durP2;ratioP2;P2;SDS_P1;SDS_P2;PMS_P1;PMS_P2;Temp;Humidity;BMP_temperature;BMP_pressure;BME280_temperature;BME280_humidity;BME280_pressure;Samples;Min_cycle;Max_cycle;Signal;HPM_P1;HPM_P2
2022/10/31 00:01:33;;;;;;;6.83;5.47;;;;;;;13.22;78.92;99337.69;5135658;27;39997;-74
2022/10/31 00:04:01;;;;;;;8.50;6.23;;;;;;;13.18;78.64;99320.22;5153213;27;42708;-75
2022/10/31 00:06:29;;;;;;;11.43;7.53;;;;;;;13.33;78.65;99346.75;5154303;27;42728;-76
2022/10/31 00:09:00;;;;;;;6.77;6.07;;;;;;;13.37;79.13;99337.59;5152595;27;42289;-77
2022/10/31 00:11:29;;;;;;;6.37;5.77;;;;;;;13.39;79.02;99341.03;5154097;27;40522;-77
2022/10/31 00:13:58;;;;;;;7.17;6.33;;;;;;;13.34;79.10;99337.84;5152938;27;42781;-76
2022/10/31 00:16:26;;;;;;;6.27;5.67;;;;;;;13.43;79.20;99346.06;5154164;27;42771;-74
2022/10/31 00:18:57;;;;;;;6.87;6.17;;;;;;;13.41;78.99;99339.13;5135382;27;41558;-74
2022/10/31 00:21:25;;;;;;;9.73;7.73;;;;;;;13.37;78.98;99321.66;5152860;27;41526;-75
2022/10/31 00:23:53;;;;;;;7.70;5.50;;;;;;;13.52;79.39;99347.25;5152301;27;40834;-78
2022/10/31 00:26:22;;;;;;;6.87;6.17;;;;;;;13.56;79.05;99354.06;5154115;27;42774;-75
2022/10/31 00:28:50;;;;;;;6.50;5.90;;;;;;;13.59;79.11;99344.09;5151310;27;42839;-75
2022/10/31 00:31:18;;;;;;;9.40;7.43;;;;;;;13.62;79.48;99343.00;5152802;27;40297;-74
2022/10/31 00:33:46;;;;;;;7.27;6.30;;;;;;;13.64;79.47;99347.28;5152430;27;41907;-73
2022/10/31 00:36:15;;;;;;;7.80;6.40;;;;;;;13.66;79.54;99348.03;5154102;27;43809;-77
2022/10/31 00:38:42;;;;;;;7.07;6.10;;;;;;;13.59;78.99;99321.94;5134505;27;41548;-75
2022/10/31 00:41:14;;;;;;;7.20;6.50;;;;;;;13.71;78.96;99342.41;5149772;27;39734;-76
2022/10/31 00:43:44;;;;;;;12.43;8.10;;;;;;;13.74;78.97;99346.63;5152433;27;42551;-75
2022/10/31 00:46:12;;;;;;;11.90;9.20;;;;;;;13.75;79.14;99351.00;5135437;27;44587;-74
2022/10/31 00:48:39;;;;;;;31.90;22.77;;;;;;;13.75;79.33;99351.00;5152442;27;42907;-75
2022/10/31 00:51:07;;;;;;;31.37;24.00;;;;;;;13.72;79.61;99346.78;5152908;27;41043;-78
2022/10/31 00:53:35;;;;;;;47.93;35.13;;;;;;;13.65;79.58;99330.34;5151947;27;44078;-75
2022/10/31 00:56:04;;;;;;;40.80;32.33;;;;;;;13.78;79.59;99346.34;5152704;27;43627;-76
2022/10/31 00:58:32;;;;;;;52.03;38.70;;;;;;;13.77;79.67;99352.63;5152107;27;42291;-75
2022/10/31 01:01:01;;;;;;;49.53;39.63;;;;;;;13.74;79.70;99336.84;5152905;27;40005;-77
2022/10/31 01:03:31;;;;;;;53.73;41.57;;;;;;;13.74;80.19;99336.84;5152189;27;41604;-76
2022/10/31 01:06:03;;;;;;;58.23;43.13;;;;;;;13.75;80.04;99343.03;5153554;27;42462;-76
2022/10/31 01:08:33;;;;;;;45.17;31.07;;;;;;;13.74;80.67;99339.50;5152042;27;42133;-74
2022/10/31 01:11:04;;;;;;;32.60;23.07;;;;;;;13.69;81.41;99339.00;5152459;27;40875;-74
2022/10/31 01:13:34;;;;;;;25.37;18.00;;;;;;;13.63;81.69;99340.25;5152158;27;42441;-78
2022/10/31 01:16:06;;;;;;;17.43;13.50;;;;;;;13.55;81.63;99336.41;5135030;27;41736;-76
2022/10/31 01:18:34;;;;;;;18.50;12.87;;;;;;;13.48;81.72;99340.41;5150656;27;41959;-78
2022/10/31 01:21:04;;;;;;;27.07;14.43;;;;;;;13.50;81.30;99338.50;5153604;27;40904;-77
2022/10/31 01:23:33;;;;;;;32.27;19.93;;;;;;;13.49;82.18;99331.47;5155083;27;42750;-75
2022/10/31 01:26:07;;;;;;;40.93;26.43;;;;;;;13.46;81.92;99334.34;5155982;27;42918;-75
2022/10/31 01:28:35;;;;;;;41.43;27.13;;;;;;;13.44;81.90;99334.47;5154253;27;42151;-74
2022/10/31 01:31:07;;;;;;;36.77;23.90;;;;;;;13.44;81.26;99334.47;5156925;27;41145;-75
2022/10/31 01:33:36;;;;;;;36.70;24.90;;;;;;;13.42;81.44;99319.53;5155260;27;42183;-75
2022/10/31 01:36:13;;;;;;;39.17;23.23;;;;;;;13.39;81.49;99320.59;5138435;27;41925;-78
2022/10/31 01:38:41;;;;;;;49.30;31.60;;;;;;;13.45;81.82;99330.84;5153313;27;42313;-78
2022/10/31 01:41:09;;;;;;;50.53;34.57;;;;;;;13.47;81.48;99344.91;5154120;27;40797;-77
2022/10/31 01:43:47;;;;;;;50.37;32.07;;;;;;;13.44;81.59;99328.28;5155282;27;41758;-77
2022/10/31 01:46:19;;;;;;;42.07;27.57;;;;;;;13.46;81.76;99335.22;5138286;27;43486;-78
2022/10/31 01:48:47;;;;;;;30.07;20.87;;;;;;;13.45;81.25;99335.31;5154223;27;42900;-77
2022/10/31 01:51:17;;;;;;;28.20;19.33;;;;;;;13.43;81.43;99326.56;5155973;27;39830;-74
2022/10/31 01:53:46;;;;;;;26.17;19.73;;;;;;;13.41;80.89;99336.47;5156247;27;42485;-76
2022/10/31 01:56:16;;;;;;;24.87;17.90;;;;;;;13.36;81.32;99322.59;5155623;27;43803;-76
2022/10/31 01:58:46;;;;;;;31.70;22.20;;;;;;;13.34;81.11;99328.06;5155238;27;42286;-75
2022/10/31 02:01:19;;;;;;;49.53;32.63;;;;;;;13.33;81.34;99325.47;5138132;27;39324;-78
2022/10/31 02:03:48;;;;;;;60.60;38.70;;;;;;;13.25;81.19;99315.34;5154063;27;42523;-76
2022/10/31 02:06:28;;;;;;;56.73;38.00;;;;;;;13.29;81.68;99328.34;5137945;27;44367;-76
2022/10/31 02:08:58;;;;;;;54.27;34.87;;;;;;;13.30;81.43;99329.19;5154007;27;43234;-76
2022/10/31 02:11:26;;;;;;;53.80;37.07;;;;;;;13.29;81.30;99331.00;5155123;27;40942;-77
2022/10/31 02:13:54;;;;;;;56.93;38.20;;;;;;;13.29;81.56;99331.00;5154989;27;42752;-77
2022/10/31 02:16:24;;;;;;;54.03;36.27;;;;;;;13.27;81.20;99332.91;5155076;27;43904;-77
2022/10/31 02:18:54;;;;;;;50.53;34.83;;;;;;;13.25;81.37;99334.81;5137249;27;40833;-78
2022/10/31 02:21:28;;;;;;;43.87;28.87;;;;;;;13.26;81.48;99336.50;5137964;27;39193;-74
2022/10/31 02:24:47;;;;;;;37.07;26.17;;;;;;;13.26;81.78;99336.50;5154689;27;40593;-75
2022/10/31 02:27:33;;;;;;;31.20;19.87;;;;;;;13.25;81.38;99342.78;5058337;28;43170;-78
2022/10/31 02:30:12;;;;;;;27.97;16.80;;;;;;;13.20;81.51;99323.63;5152274;27;43238;-74
2022/10/31 02:33:01;;;;;;;19.73;14.93;;;;;;;13.25;81.36;99334.81;5136825;27;38962;-76
2022/10/31 02:35:48;;;;;;;14.83;11.40;;;;;;;13.25;81.61;99334.81;5137394;27;41023;-76
2022/10/31 02:38:30;;;;;;;10.40;8.77;;;;;;;13.25;81.59;99340.13;5152684;27;42963;-76
2022/10/31 02:41:07;;;;;;;9.53;7.33;;;;;;;13.24;81.45;99338.41;5151721;27;43090;-75
2022/10/31 02:43:49;;;;;;;7.10;5.90;;;;;;;13.24;81.50;99333.09;5153466;27;39644;-76
2022/10/31 09:20:28;;;;;;;7.23;6.53;;;;;;;12.88;100.00;99340.78;5171534;27;20566;-75
2022/10/31 09:22:57;;;;;;;8.13;7.27;;;;;;;13.27;100.00;99327.59;5152192;27;40126;-76
2022/10/31 09:25:25;;;;;;;6.47;5.87;;;;;;;13.82;100.00;99334.53;5167091;27;41982;-76
2022/10/31 09:28:14;;;;;;;9.93;7.23;;;;;;;14.31;99.02;99325.81;5154431;27;42890;-76
2022/10/31 09:30:43;;;;;;;7.27;6.60;;;;;;;14.32;94.39;99299.06;5132086;27;41747;-76
2022/10/31 09:33:13;;;;;;;6.43;5.83;;;;;;;14.83;92.96;99338.13;5138896;27;39995;-75
2022/10/31 09:35:45;;;;;;;6.63;5.83;;;;;;;15.09;91.15;99334.41;5163644;27;41729;-75
2022/10/31 09:38:14;;;;;;;6.60;6.07;;;;;;;15.31;89.44;99333.69;5139596;27;42223;-77
2022/10/31 09:40:44;;;;;;;6.57;5.97;;;;;;;15.43;87.91;99338.97;5158153;27;43071;-76
2022/10/31 09:43:21;;;;;;;6.20;5.60;;;;;;;15.56;87.27;99327.41;5156657;27;40900;-75
2022/10/31 09:45:57;;;;;;;6.33;5.83;;;;;;;15.69;85.53;99328.19;5139017;27;41782;-78
2022/10/31 09:48:57;;;;;;;8.40;7.60;;;;;;;15.82;85.00;99323.59;5156626;27;43832;-79
2022/10/31 09:51:42;;;;;;;7.37;6.20;;;;;;;15.97;84.46;99321.56;5140210;27;41171;-78
2022/10/31 09:54:20;;;;;;;5.77;5.17;;;;;;;16.07;83.80;99323.38;5138288;27;41885;-76
2022/10/31 09:56:48;;;;;;;6.77;6.17;;;;;;;16.20;82.96;99327.78;5155275;27;41096;-77
2022/10/31 09:59:25;;;;;;;6.30;5.70;;;;;;;16.30;82.52;99323.44;5155974;27;44887;-76
2022/10/31 10:01:58;;;;;;;8.27;6.70;;;;;;;16.33;81.96;99313.34;5143053;27;42268;-79
2022/10/31 10:04:36;;;;;;;8.00;6.43;;;;;;;16.54;80.87;99329.53;5137424;27;39443;-78
2022/10/31 10:07:21;;;;;;;6.63;6.03;;;;;;;16.51;80.76;99311.03;5137444;27;41804;-75
2022/10/31 10:10:16;;;;;;;6.97;6.37;;;;;;;16.65;80.13;99324.19;5158077;27;42690;-76
2022/10/31 10:13:33;;;;;;;6.67;5.97;;;;;;;16.76;79.53;99316.16;5140652;27;40634;-80
2022/10/31 10:16:17;;;;;;;7.00;5.63;;;;;;;16.84;79.35;99327.06;5158416;27;40253;-76
2022/10/31 10:18:58;;;;;;;7.23;6.53;;;;;;;16.98;78.72;99319.75;5146922;27;42340;-79
2022/10/31 10:21:39;;;;;;;6.70;6.10;;;;;;;17.08;78.16;99315.34;5130527;27;42000;-75
2022/10/31 10:24:24;;;;;;;6.70;6.00;;;;;;;17.15;78.20;99317.41;5162722;27;42208;-78
2022/10/31 10:27:05;;;;;;;10.23;6.97;;;;;;;17.18;76.93;99313.66;5162001;27;38409;-79
2022/10/31 10:29:38;;;;;;;6.40;5.80;;;;;;;17.15;77.17;99300.50;5158335;27;41801;-77
2022/10/31 10:32:12;;;;;;;6.93;5.97;;;;;;;17.29;76.75;99318.13;5117451;27;43945;-76
2022/10/31 10:34:47;;;;;;;7.37;6.77;;;;;;;17.35;76.45;99312.22;5117003;27;41031;-80
2022/10/31 10:37:24;;;;;;;8.13;6.90;;;;;;;17.33;76.29;99301.66;5154352;27;38465;-80
2022/10/31 10:39:56;;;;;;;7.67;6.87;;;;;;;17.28;75.74;99300.34;5136836;27;42357;-77
2022/10/31 10:48:11;;;;;;;8.00;7.00;;;;;;;17.42;74.78;99294.69;5151676;27;40289;-80
2022/10/31 10:50:45;;;;;;;7.63;6.93;;;;;;;17.44;74.48;99288.22;5137477;27;42258;-75
2022/10/31 10:53:32;;;;;;;7.93;7.23;;;;;;;17.53;74.37;99297.31;5151937;27;43965;-76
2022/10/31 10:56:11;;;;;;;7.63;6.93;;;;;;;17.51;74.73;99292.09;5134731;27;40863;-79
2022/10/31 10:58:39;;;;;;;7.83;7.03;;;;;;;17.59;75.45;99289.59;5152374;27;40728;-79
2022/10/31 11:01:12;;;;;;;8.20;7.40;;;;;;;17.51;75.11;99257.28;5137518;27;41617;-74
2022/10/31 11:03:40;;;;;;;8.27;7.47;;;;;;;17.66;75.10;99271.25;5146726;27;43933;-75
2022/10/31 11:06:21;;;;;;;8.77;7.40;;;;;;;17.51;74.59;99237.69;5144518;27;42066;-78
2022/10/31 11:08:50;;;;;;;8.27;7.20;;;;;;;17.67;74.19;99264.06;5125482;27;38811;-76
2022/10/31 11:11:27;;;;;;;7.77;7.07;;;;;;;17.77;74.58;99273.00;5123853;27;40862;-78
2022/10/31 11:14:01;;;;;;;8.23;7.43;;;;;;;17.82;74.46;99273.44;5124631;27;41831;-76
2022/10/31 11:16:32;;;;;;;8.23;7.53;;;;;;;17.82;74.39;99247.50;5140013;27;42265;-77
2022/10/31 11:19:10;;;;;;;8.33;7.10;;;;;;;18.07;73.82;99262.28;5145921;27;40569;-78
2022/10/31 11:21:37;;;;;;;8.63;7.73;;;;;;;18.14;73.15;99258.13;5132986;27;41769;-77
2022/10/31 11:24:14;;;;;;;9.37;8.30;;;;;;;18.23;72.63;99264.50;5136124;27;43985;-75
2022/10/31 11:26:47;;;;;;;7.50;6.90;;;;;;;18.34;72.89;99263.56;5130844;27;42230;-74
2022/10/31 11:29:18;;;;;;;9.07;7.37;;;;;;;18.37;71.94;99252.56;5115421;27;39076;-77
2022/10/31 11:31:48;;;;;;;7.77;7.07;;;;;;;18.52;71.92;99261.94;5133591;27;40483;-77
2022/10/31 11:34:26;;;;;;;7.47;6.77;;;;;;;18.50;72.15;99237.94;5134147;27;43991;-74
2022/10/31 11:36:53;;;;;;;7.63;6.70;;;;;;;18.66;71.84;99242.81;5130373;27;43093;-75
2022/10/31 11:39:23;;;;;;;8.73;7.93;;;;;;;18.76;71.90;99249.06;5115626;27;41521;-77
2022/10/31 11:41:55;;;;;;;9.13;8.30;;;;;;;18.80;71.17;99247.75;5149322;27;41643;-78
2022/10/31 11:44:27;;;;;;;9.73;8.83;;;;;;;18.80;71.32;99247.75;5130922;27;43040;-78
2022/10/31 11:46:58;;;;;;;9.10;8.20;;;;;;;18.75;71.08;99236.63;5132585;27;43923;-74
2022/10/31 11:49:35;;;;;;;7.90;7.17;;;;;;;18.82;71.14;99228.84;5143650;27;39010;-77
2022/10/31 11:52:07;;;;;;;8.83;8.00;;;;;;;18.89;70.84;99228.16;5148131;27;40924;-77
2022/10/31 11:54:41;;;;;;;10.77;8.90;;;;;;;18.92;71.05;99227.03;5141707;27;43739;-76
2022/10/31 11:57:24;;;;;;;8.73;7.83;;;;;;;18.86;70.64;99225.75;5116148;27;42455;-75
2022/10/31 11:59:54;;;;;;;8.53;7.67;;;;;;;18.91;71.24;99210.09;5144398;27;39551;-78
2022/10/31 12:02:22;;;;;;;9.13;8.23;;;;;;;18.97;71.11;99206.84;5139845;27;41650;-75
2022/10/31 12:04:57;;;;;;;7.87;7.17;;;;;;;19.07;71.08;99208.66;5133359;27;42117;-77
2022/10/31 12:07:25;;;;;;;8.27;7.47;;;;;;;19.02;70.67;99195.69;5116233;27;41332;-78
2022/10/31 12:09:52;;;;;;;9.77;8.87;;;;;;;19.07;69.27;99201.47;5131905;27;39899;-76
2022/10/31 12:12:44;;;;;;;9.43;8.43;;;;;;;19.04;69.93;99203.59;5132443;27;42690;-75
2022/10/31 12:15:27;;;;;;;9.87;8.97;;;;;;;18.99;70.03;99195.97;5141590;27;42482;-78
2022/10/31 12:18:07;;;;;;;9.57;8.50;;;;;;;19.02;70.09;99199.22;5145413;27;43204;-76
2022/10/31 12:20:47;;;;;;;8.37;7.57;;;;;;;19.06;70.08;99188.19;5138002;27;39886;-75
2022/10/31 12:23:23;;;;;;;8.17;7.37;;;;;;;19.08;70.13;99183.53;5138283;27;42894;-78
2022/10/31 12:25:56;;;;;;;9.13;7.83;;;;;;;19.08;70.34;99172.78;5141550;27;43477;-74
2022/10/31 12:28:55;;;;;;;9.13;8.23;;;;;;;19.14;70.24;99177.59;5147250;27;41078;-77
2022/10/31 12:31:37;;;;;;;9.57;8.50;;;;;;;19.14;69.83;99177.59;5149930;27;40705;-75
2022/10/31 12:34:29;;;;;;;10.30;8.90;;;;;;;19.08;69.29;99172.78;5137507;27;41688;-76
2022/10/31 12:37:07;;;;;;;9.13;7.70;;;;;;;19.02;70.03;99169.69;5131898;27;43319;-76
2022/10/31 12:39:45;;;;;;;11.40;9.97;;;;;;;19.00;69.75;99166.31;5147178;27;41590;-77
2022/10/31 12:42:24;;;;;;;8.70;7.80;;;;;;;18.97;70.06;99161.22;5145856;27;38961;-78
2022/10/31 12:45:16;;;;;;;9.47;8.33;;;;;;;18.94;70.01;99156.13;5148296;27;40651;-74
2022/10/31 12:48:00;;;;;;;8.63;7.77;;;;;;;18.95;70.45;99152.44;5147376;27;42882;-77
2022/10/31 12:50:41;;;;;;;10.10;9.20;;;;;;;18.94;70.33;99150.75;5140324;27;41893;-76
2022/10/31 12:53:27;;;;;;;9.70;8.47;;;;;;;18.94;70.92;99140.00;5138320;27;40026;-77
2022/10/31 12:56:09;;;;;;;9.37;8.47;;;;;;;19.00;70.24;99139.47;5144332;27;41465;-81
2022/10/31 12:58:41;;;;;;;9.30;8.40;;;;;;;19.04;70.47;99139.19;5144721;27;44050;-79
2022/10/31 13:01:15;;;;;;;10.43;9.43;;;;;;;19.11;70.14;99135.78;5126967;27;42726;-75
2022/10/31 13:03:49;;;;;;;9.77;8.87;;;;;;;19.09;69.99;99126.16;5144619;27;40075;-78
2022/10/31 13:06:20;;;;;;;9.40;8.47;;;;;;;19.08;69.87;99129.84;5134228;27;42697;-78
2022/10/31 13:08:53;;;;;;;8.87;8.07;;;;;;;19.13;70.47;99123.06;5137220;27;42790;-74
2022/10/31 13:11:32;;;;;;;9.17;8.27;;;;;;;19.18;70.25;99125.28;5128249;27;41670;-77
2022/10/31 13:14:06;;;;;;;9.50;8.60;;;;;;;19.24;69.96;99114.00;5145225;27;39807;-78
2022/10/31 13:16:38;;;;;;;9.80;8.80;;;;;;;19.26;69.55;99112.88;5130584;27;42134;-77
2022/10/31 13:19:15;;;;;;;9.03;8.13;;;;;;;19.30;69.39;99108.03;5146298;27;43739;-76
2022/10/31 13:21:54;;;;;;;9.40;8.40;;;;;;;19.32;69.44;99096.16;5136608;27;43090;-76
2022/10/31 13:24:28;;;;;;;8.97;8.17;;;;;;;19.35;69.39;99095.03;5139202;27;40739;-77
2022/10/31 13:26:59;;;;;;;9.07;8.27;;;;;;;19.35;69.74;99077.06;5137587;27;42763;-78
2022/10/31 13:29:30;;;;;;;10.37;8.30;;;;;;;19.31;69.61;99054.19;5138215;27;42927;-78
2022/10/31 13:32:00;;;;;;;10.43;9.17;;;;;;;19.36;69.92;99072.56;5127509;27;42007;-76
2022/10/31 13:34:33;;;;;;;8.93;8.13;;;;;;;19.32;70.19;99068.44;5132743;27;41047;-78
2022/10/31 13:37:08;;;;;;;8.37;7.47;;;;;;;19.32;70.42;99068.44;5114088;27;40896;-78
2022/10/31 13:40:06;;;;;;;10.33;9.23;;;;;;;19.32;70.26;99055.88;5130716;27;42123;-76
2022/10/31 13:42:46;;;;;;;8.80;7.90;;;;;;;19.31;70.57;99056.00;5130440;27;40635;-79
2022/10/31 13:45:18;;;;;;;9.17;8.33;;;;;;;19.32;70.38;99057.72;5132876;27;40713;-77
2022/10/31 13:47:59;;;;;;;8.23;7.40;;;;;;;19.27;70.41;99038.53;5114242;27;40969;-77
2022/10/31 13:50:29;;;;;;;10.47;9.47;;;;;;;19.34;70.48;99036.94;5129655;27;42754;-75
2022/10/31 13:53:11;;;;;;;9.97;8.93;;;;;;;19.31;70.52;99042.59;5130768;27;42764;-77
2022/10/31 13:55:41;;;;;;;8.00;7.10;;;;;;;19.28;70.77;99045.59;5114689;27;39227;-78
2022/10/31 13:58:27;;;;;;;8.00;7.30;;;;;;;19.24;70.72;99038.81;5132183;27;41690;-81
2022/10/31 14:01:23;;;;;;;8.23;7.43;;;;;;;19.24;71.01;99039.66;5128399;27;42640;-80
2022/10/31 14:04:02;;;;;;;8.90;8.10;;;;;;;19.14;70.79;99027.25;5094040;27;42091;-80
2022/10/31 14:06:41;;;;;;;7.67;6.90;;;;;;;19.15;70.74;99026.25;5130991;27;39863;-79
2022/10/31 14:09:21;;;;;;;8.20;7.47;;;;;;;19.20;70.81;99032.03;5134793;27;40709;-77
2022/10/31 14:11:51;;;;;;;7.40;6.70;;;;;;;19.22;70.71;99032.72;5131850;27;42531;-79
2022/10/31 14:14:20;;;;;;;10.37;8.17;;;;;;;19.11;71.11;99027.53;5134670;27;42410;-78
2022/10/31 14:16:56;;;;;;;8.37;7.63;;;;;;;19.18;71.00;99034.00;5135902;27;40911;-79
2022/10/31 14:19:26;;;;;;;8.87;7.97;;;;;;;19.12;71.28;99027.41;5134338;27;42107;-78
2022/10/31 14:21:54;;;;;;;7.40;6.70;;;;;;;19.12;71.58;99027.41;5117387;27;42338;-80
2022/10/31 14:24:37;;;;;;;8.20;7.50;;;;;;;19.12;71.73;99018.50;5134131;27;42740;-78
2022/10/31 14:27:35;;;;;;;10.43;9.40;;;;;;;19.07;71.60;99020.75;5134563;27;38718;-81
2022/10/31 14:30:16;;;;;;;9.47;8.57;;;;;;;19.04;71.79;99013.84;5134276;27;40979;-81
2022/10/31 14:32:44;;;;;;;8.60;7.80;;;;;;;18.93;71.81;98985.34;5132414;27;43608;-81
2022/10/31 14:35:17;;;;;;;9.53;8.53;;;;;;;18.96;72.23;98989.56;5134189;27;42367;-80
2022/10/31 14:38:33;;;;;;;8.47;7.67;;;;;;;18.98;72.72;98982.22;5131160;27;40469;-80
2022/10/31 14:41:32;;;;;;;8.40;7.23;;;;;;;18.97;72.26;98989.44;5054828;28;41681;-80
2022/10/31 14:44:43;;;;;;;10.20;9.27;;;;;;;18.95;72.59;98995.94;5116417;27;42455;-80
2022/10/31 14:47:21;;;;;;;7.70;6.90;;;;;;;18.91;72.58;99000.75;5132353;27;43081;-78
2022/10/31 14:50:16;;;;;;;11.77;8.37;;;;;;;18.86;72.95;99000.34;5134932;27;40554;-81
2022/10/31 14:52:49;;;;;;;11.07;7.87;;;;;;;18.81;72.58;98993.69;5134001;27;40883;-80
2022/10/31 14:55:19;;;;;;;9.43;8.47;;;;;;;18.74;72.78;98993.44;5116619;27;43980;-80
2022/10/31 14:57:52;;;;;;;10.07;9.07;;;;;;;18.65;72.95;98987.09;5135161;27;41910;-78
2022/10/31 15:00:22;;;;;;;10.07;8.80;;;;;;;18.59;73.12;98986.81;5132177;27;40913;-79
2022/10/31 15:02:59;;;;;;;7.80;7.10;;;;;;;18.54;72.99;98986.38;5116226;27;43734;-81
2022/10/31 15:05:28;;;;;;;8.23;7.07;;;;;;;18.48;73.18;98976.22;5131669;27;43757;-79
2022/10/31 15:07:59;;;;;;;7.87;6.87;;;;;;;18.45;73.32;98976.50;5133668;27;43180;-81
2022/10/31 15:10:29;;;;;;;7.87;7.03;;;;;;;18.40;73.25;98973.41;5132263;27;39969;-80
2022/10/31 15:12:57;;;;;;;8.97;6.97;;;;;;;18.39;73.47;98974.41;5116245;27;41695;-80
2022/10/31 15:15:27;;;;;;;7.40;6.80;;;;;;;18.35;73.73;98976.50;5133606;27;43156;-77
2022/10/31 15:17:59;;;;;;;10.17;8.43;;;;;;;18.34;73.82;98971.28;5134380;27;43718;-77
2022/10/31 15:20:28;;;;;;;8.93;8.03;;;;;;;18.31;73.83;98969.72;5116630;27;39240;-80
2022/10/31 15:23:00;;;;;;;10.27;8.93;;;;;;;18.29;73.87;98958.31;5133268;27;42025;-79
2022/10/31 15:25:32;;;;;;;8.63;7.77;;;;;;;18.26;73.97;98959.44;5130486;27;42664;-78
2022/10/31 15:27:59;;;;;;;8.43;7.63;;;;;;;18.24;73.91;98957.88;5116003;27;41698;-80
2022/10/31 15:30:31;;;;;;;10.23;9.17;;;;;;;18.12;73.90;98946.47;5133857;27;39876;-79
2022/10/31 15:32:58;;;;;;;8.67;7.80;;;;;;;18.20;74.09;98954.63;5116006;27;41852;-79
2022/10/31 15:35:28;;;;;;;8.47;7.57;;;;;;;18.17;74.14;98952.25;5116286;27;44139;-79
2022/10/31 15:38:01;;;;;;;8.93;7.87;;;;;;;18.16;74.11;98955.09;5132869;27;43630;-80
2022/10/31 15:40:28;;;;;;;12.43;8.53;;;;;;;18.04;73.96;98951.69;5131525;27;40900;-79
2022/10/31 15:42:58;;;;;;;7.90;7.20;;;;;;;17.99;74.04;98937.00;5115830;27;42588;-77
2022/10/31 15:45:28;;;;;;;8.40;7.53;;;;;;;18.00;74.24;98952.94;5116080;27;41941;-79
2022/10/31 15:47:58;;;;;;;8.70;7.90;;;;;;;17.92;74.67;98950.97;5115782;27;43342;-80
2022/10/31 15:50:31;;;;;;;11.23;8.63;;;;;;;17.78;74.53;98940.66;5133631;27;39921;-77
2022/10/31 15:53:01;;;;;;;9.10;8.20;;;;;;;17.56;74.98;98931.00;5116028;27;40770;-80
2022/10/31 15:55:33;;;;;;;9.13;8.00;;;;;;;17.49;75.10;98951.28;5132768;27;43098;-80
2022/10/31 15:58:04;;;;;;;9.23;7.57;;;;;;;17.38;75.09;98953.22;5133213;27;42287;-79
2022/10/31 16:00:34;;;;;;;8.87;7.20;;;;;;;17.09;75.21;98937.06;5115551;27;38986;-81
2022/10/31 16:03:07;;;;;;;10.07;9.07;;;;;;;17.04;75.60;98961.56;5150577;27;41254;-79
2022/10/31 16:05:38;;;;;;;10.67;8.97;;;;;;;16.76;75.60;98940.84;5146452;27;41751;-79
2022/10/31 16:08:38;;;;;;;11.47;10.27;;;;;;;16.73;76.41;98958.00;5143408;27;42710;-80
2022/10/31 16:11:21;;;;;;;11.77;9.20;;;;;;;16.61;76.25;98964.38;5126864;27;39567;-81
2022/10/31 16:13:58;;;;;;;12.37;9.33;;;;;;;16.50;76.59;98965.28;5146531;27;42752;-78
2022/10/31 16:16:29;;;;;;;12.07;10.30;;;;;;;16.43;76.74;98965.97;5139073;27;42281;-80
2022/10/31 16:18:57;;;;;;;9.67;8.67;;;;;;;16.24;77.02;98944.41;5134356;27;42032;-78
2022/10/31 16:21:27;;;;;;;11.20;9.70;;;;;;;16.28;77.03;98962.75;5145032;27;40423;-78
2022/10/31 16:24:01;;;;;;;11.33;9.10;;;;;;;16.20;77.15;98964.34;5130213;27;40426;-77
2022/10/31 16:26:30;;;;;;;9.80;8.37;;;;;;;16.05;76.79;98951.31;5138745;27;43541;-80
2022/10/31 16:28:59;;;;;;;9.83;8.73;;;;;;;15.95;76.79;98950.38;5131221;27;43848;-80
2022/10/31 16:31:30;;;;;;;11.43;10.00;;;;;;;15.94;77.13;98948.69;5137561;27;40285;-78
2022/10/31 16:34:06;;;;;;;11.80;10.43;;;;;;;15.99;77.40;98957.16;5129699;27;42017;-77
2022/10/31 16:36:38;;;;;;;18.27;14.40;;;;;;;15.97;77.72;98952.91;5139777;27;42853;-80
2022/10/31 16:39:08;;;;;;;11.07;9.90;;;;;;;16.01;77.81;98949.88;5126390;27;42497;-78
2022/10/31 16:41:52;;;;;;;;;;;;;;;;;;;;;
2022/10/31 16:44:23;;;;;;;13.77;11.40;;;;;;;16.06;77.68;98946.81;5118506;27;42376;-81
2022/10/31 16:47:09;;;;;;;11.23;10.03;;;;;;;16.00;77.88;98932.16;5151563;27;43415;-79
2022/10/31 16:49:36;;;;;;;10.47;9.37;;;;;;;16.05;77.94;98951.31;5143273;27;42587;-81
2022/10/31 16:52:04;;;;;;;9.73;8.60;;;;;;;16.05;77.91;98951.31;5125804;27;39956;-79
2022/10/31 16:54:33;;;;;;;8.77;7.87;;;;;;;16.05;77.71;98962.00;5130394;27;40733;-82
2022/10/31 16:57:03;;;;;;;9.53;8.53;;;;;;;16.06;78.01;98954.84;5138924;27;43025;-81
2022/10/31 16:59:33;;;;;;;12.47;10.00;;;;;;;16.06;77.70;98952.16;5130811;27;42968;-79
2022/10/31 17:02:02;;;;;;;10.60;9.40;;;;;;;16.08;77.56;98955.53;5142488;27;40836;-80
2022/10/31 17:04:29;;;;;;;14.50;11.90;;;;;;;16.09;77.39;98967.91;5130906;27;42669;-82
2022/10/31 17:06:57;;;;;;;10.07;9.07;;;;;;;15.96;77.69;98952.06;5139759;27;42824;-81
2022/10/31 17:09:27;;;;;;;9.90;8.83;;;;;;;16.04;77.43;98970.16;5140650;27;43268;-79
2022/10/31 17:12:00;;;;;;;9.20;8.30;;;;;;;15.80;77.42;98946.31;5144729;27;38966;-78
2022/10/31 17:14:28;;;;;;;9.87;8.70;;;;;;;15.88;77.63;98975.91;5145247;27;41822;-78
2022/10/31 17:16:55;;;;;;;9.80;8.87;;;;;;;15.82;77.56;98971.06;5142560;27;41551;-82
2022/10/31 17:19:23;;;;;;;9.50;8.60;;;;;;;15.72;78.11;98948.75;5130049;27;41227;-81
2022/10/31 17:21:50;;;;;;;13.27;11.87;;;;;;;15.65;80.14;98932.41;5143166;27;39971;-80
2022/10/31 17:24:18;;;;;;;13.00;11.70;;;;;;;15.57;79.89;98931.34;5113403;27;42368;-81
2022/10/31 17:26:46;;;;;;;12.03;10.43;;;;;;;15.44;80.02;98926.97;5140251;27;42457;-82
2022/10/31 17:29:14;;;;;;;11.20;10.10;;;;;;;15.29;80.04;98920.19;5140010;27;41976;-81
2022/10/31 17:31:44;;;;;;;9.57;8.60;;;;;;;15.39;79.81;98947.81;5134450;27;39828;-81
2022/10/31 17:34:11;;;;;;;8.77;7.57;;;;;;;15.35;79.66;98951.72;5125509;27;40360;-79
2022/10/31 17:36:39;;;;;;;8.10;7.40;;;;;;;15.33;79.80;98948.31;5145657;27;42486;-81
2022/10/31 17:39:08;;;;;;;8.20;7.40;;;;;;;15.33;79.59;98950.97;5112684;27;41392;-78
2022/10/31 17:41:36;;;;;;;7.63;6.87;;;;;;;15.32;79.75;98949.31;5140290;27;40137;-81
2022/10/31 17:44:03;;;;;;;7.20;6.40;;;;;;;15.25;79.20;98925.88;5134876;27;41936;-79
2022/10/31 17:46:33;;;;;;;6.90;6.23;;;;;;;15.30;79.26;98919.22;5142122;27;43795;-81
2022/10/31 17:49:00;;;;;;;10.80;9.53;;;;;;;15.26;79.80;98904.44;5139296;27;42210;-79
2022/10/31 17:51:28;;;;;;;12.77;11.47;;;;;;;15.32;80.34;98927.97;5117578;27;38946;-80
2022/10/31 17:53:55;;;;;;;13.07;10.77;;;;;;;15.32;79.98;98941.31;5133403;27;40968;-81
2022/10/31 17:56:25;;;;;;;10.00;9.07;;;;;;;15.31;79.90;98931.59;5133710;27;42853;-81
2022/10/31 17:58:56;;;;;;;8.83;8.00;;;;;;;15.38;79.51;98931.94;5134077;27;43109;-79
2022/10/31 18:01:24;;;;;;;7.67;6.97;;;;;;;15.40;79.42;98930.84;5117152;27;40697;-79
2022/10/31 18:03:54;;;;;;;10.57;9.57;;;;;;;15.38;79.37;98926.59;5116570;27;40864;-81
2022/10/31 18:06:21;;;;;;;12.53;11.23;;;;;;;15.37;79.31;98916.91;5134177;27;43354;-78
2022/10/31 18:08:49;;;;;;;9.97;9.00;;;;;;;15.45;79.19;98931.31;5133991;27;41567;-79
2022/10/31 18:11:19;;;;;;;10.00;8.90;;;;;;;15.45;79.49;98920.63;5136281;27;40243;-79
2022/10/31 18:13:47;;;;;;;13.60;12.20;;;;;;;15.40;80.72;98912.16;5117430;27;42112;-80
2022/10/31 18:16:16;;;;;;;14.60;12.90;;;;;;;15.31;81.61;98907.59;5117453;27;43210;-78
2022/10/31 18:18:43;;;;;;;15.10;13.50;;;;;;;15.21;82.03;98885.25;5134144;27;42689;-81
2022/10/31 18:21:13;;;;;;;17.00;14.83;;;;;;;15.18;83.02;98896.19;5134179;27;40493;-82
2022/10/31 18:23:40;;;;;;;13.57;12.20;;;;;;;15.11;83.27;98895.00;5116539;27;41651;-79
2022/10/31 18:26:08;;;;;;;18.33;14.63;;;;;;;14.96;83.64;98880.22;5134728;27;42780;-82
2022/10/31 18:28:36;;;;;;;14.63;13.13;;;;;;;15.02;83.74;98901.06;5116951;27;41220;-81
2022/10/31 18:31:04;;;;;;;12.63;11.43;;;;;;;15.00;83.12;98897.66;5135666;27;40975;-81
2022/10/31 18:33:32;;;;;;;10.90;9.80;;;;;;;14.99;82.76;98906.63;5117162;27;42811;-80
2022/10/31 18:36:04;;;;;;;10.90;9.80;;;;;;;14.88;82.75;98887.97;5135722;27;43860;-81
2022/10/31 18:38:33;;;;;;;9.60;8.53;;;;;;;14.78;82.67;98876.34;5132249;27;43108;-81
2022/10/31 18:41:01;;;;;;;9.53;8.67;;;;;;;14.97;82.14;98897.91;5134367;27;40726;-78